createdAt,value
2019-03-15T00:02:42.328Z,1.77
2019-03-15T00:05:11.780Z,1.43
2019-03-15T00:07:41.343Z,1.50
2019-03-15T00:10:10.790Z,1.90
2019-03-15T00:12:40.685Z,2.60
2019-03-15T00:15:10.286Z,2.70
2019-03-15T00:17:39.911Z,3.40
2019-03-15T00:20:30.371Z,1.60
2019-03-15T00:23:11.491Z,2.70
2019-03-15T00:25:41.016Z,1.60
2019-03-15T00:28:10.455Z,1.53
2019-03-15T00:30:44.746Z,2.23
2019-03-15T00:33:14.113Z,3.77
2019-03-15T00:35:43.822Z,1.50
2019-03-15T00:38:32.170Z,1.73
2019-03-15T00:41:01.555Z,2.53
2019-03-15T00:43:31.159Z,1.30
2019-03-15T00:48:35.572Z,2.33
2019-03-15T00:51:05.344Z,2.37
2019-03-15T00:53:34.986Z,1.53
2019-03-15T00:56:04.429Z,1.47
2019-03-15T00:58:33.821Z,2.53
2019-03-15T01:01:04.494Z,5.43
2019-03-15T01:03:33.858Z,1.23
2019-03-15T01:06:03.283Z,1.73
2019-03-15T01:08:32.752Z,2.07
2019-03-15T01:11:02.372Z,2.23
2019-03-15T01:13:50.796Z,2.77
2019-03-15T01:16:20.196Z,1.50
2019-03-15T01:18:49.599Z,1.30
2019-03-15T01:21:38.067Z,1.87
2019-03-15T01:24:09.062Z,5.13
2019-03-15T01:26:41.099Z,3.23
2019-03-15T01:31:46.113Z,2.97
2019-03-15T01:34:27.052Z,2.20
2019-03-15T01:37:07.803Z,2.23
2019-03-15T01:39:37.284Z,1.90
2019-03-15T01:42:06.656Z,2.13
2019-03-15T01:44:36.070Z,1.90
2019-03-15T01:47:05.462Z,1.80
2019-03-15T01:49:35.185Z,3.43
2019-03-15T01:52:23.788Z,1.57
2019-03-15T01:58:05.993Z,1.80
2019-03-15T02:00:35.927Z,3.17
2019-03-15T02:03:05.307Z,3.97
2019-03-15T02:08:10.072Z,2.50
2019-03-15T02:10:59.155Z,3.80
2019-03-15T02:13:40.379Z,2.17
2019-03-15T02:16:09.984Z,4.00
2019-03-15T02:18:58.378Z,4.10
2019-03-15T02:21:40.091Z,2.70
2019-03-15T02:24:09.617Z,2.50
2019-03-15T02:26:39.215Z,1.90
2019-03-15T02:29:08.628Z,2.93
2019-03-15T02:34:27.347Z,4.27
2019-03-15T02:37:17.425Z,4.90
2019-03-15T02:39:46.847Z,3.27
2019-03-15T02:42:16.229Z,4.47
2019-03-15T02:44:45.625Z,4.53
2019-03-15T02:47:15.036Z,2.33
2019-03-15T02:49:44.424Z,3.50
2019-03-15T02:52:32.889Z,4.23
2019-03-15T02:55:02.410Z,3.00
2019-03-15T03:00:22.527Z,2.73
2019-03-15T03:02:51.954Z,2.63
2019-03-15T03:05:21.378Z,3.67
2019-03-15T03:07:51.116Z,5.40
2019-03-15T03:10:22.163Z,3.63
2019-03-15T03:12:51.554Z,2.57
2019-03-15T03:15:21.606Z,4.33
2019-03-15T03:17:50.956Z,5.03
2019-03-15T03:20:21.204Z,3.97
2019-03-15T03:23:01.932Z,3.37
2019-03-15T03:25:33.630Z,4.57
2019-03-15T03:28:03.024Z,4.70
2019-03-15T03:30:32.481Z,3.47
2019-03-15T03:33:03.963Z,3.70
2019-03-15T03:35:33.397Z,4.90
2019-03-15T03:38:03.034Z,3.80
2019-03-15T03:40:51.659Z,3.20
2019-03-15T03:43:21.620Z,2.87
2019-03-15T03:46:29.016Z,4.77
2019-03-15T03:48:58.459Z,4.40
2019-03-15T03:51:27.854Z,4.13
2019-03-15T03:53:57.312Z,5.40
2019-03-15T03:56:26.855Z,2.63
2019-03-15T03:58:56.365Z,4.33
2019-03-15T04:01:25.783Z,3.53
2019-03-15T04:03:55.245Z,2.60
2019-03-15T04:06:24.821Z,4.00
2019-03-15T04:11:54.801Z,4.57
2019-03-15T04:14:16.670Z,4.77
2019-03-15T04:16:46.241Z,2.60
2019-03-15T04:19:15.751Z,3.33
2019-03-15T04:22:04.453Z,2.90
2019-03-15T04:24:33.979Z,3.80
2019-03-15T04:27:03.385Z,3.37
2019-03-15T04:29:51.825Z,3.17
2019-03-15T04:32:21.371Z,4.80
2019-03-15T04:34:50.785Z,4.47
2019-03-15T04:37:22.758Z,2.50
2019-03-15T04:39:51.274Z,2.80
2019-03-15T04:42:27.845Z,2.93
2019-03-15T04:44:57.437Z,4.13
2019-03-15T04:47:26.974Z,3.33
2019-03-15T04:52:31.558Z,2.70
2019-03-15T04:55:12.546Z,3.07
2019-03-15T05:00:17.625Z,4.00
2019-03-15T05:02:47.077Z,3.33
2019-03-15T05:05:16.456Z,4.20
2019-03-15T05:07:46.065Z,2.87
2019-03-15T05:10:34.442Z,3.60
2019-03-15T05:13:04.262Z,3.43
2019-03-15T05:15:33.805Z,3.17
2019-03-15T05:18:03.219Z,2.60
2019-03-15T05:20:32.583Z,2.83
2019-03-15T05:23:02.222Z,2.53
2019-03-15T05:25:31.799Z,3.33
2019-03-15T05:28:01.387Z,2.67
2019-03-15T05:30:52.093Z,3.33
2019-03-15T05:33:21.661Z,2.80
2019-03-15T05:35:51.142Z,3.40
2019-03-15T05:38:20.685Z,2.80
2019-03-15T05:40:50.062Z,2.73
2019-03-15T05:43:19.522Z,4.27
2019-03-15T05:45:48.968Z,4.00
2019-03-15T05:48:18.415Z,2.97
2019-03-15T05:51:07.019Z,2.90
2019-03-15T05:53:36.440Z,3.70
2019-03-15T05:58:50.386Z,2.87
2019-03-15T06:01:20.023Z,2.50
2019-03-15T06:06:37.849Z,4.43
2019-03-15T06:09:07.639Z,3.77
2019-03-15T06:11:37.042Z,2.83
2019-03-15T06:14:07.010Z,2.70
2019-03-15T06:16:36.444Z,2.50
2019-03-15T06:19:05.870Z,3.17
2019-03-15T06:21:35.426Z,3.00
2019-03-15T06:24:04.892Z,2.67
2019-03-15T06:26:53.386Z,2.77
2019-03-15T06:29:44.063Z,3.10
2019-03-15T06:32:13.487Z,4.03
2019-03-15T06:34:43.524Z,3.03
2019-03-15T06:37:17.873Z,3.23
2019-03-15T06:39:47.290Z,3.30
2019-03-15T06:42:16.692Z,3.20
2019-03-15T06:44:57.459Z,5.70
2019-03-15T06:47:17.345Z,3.17
2019-03-15T06:49:47.304Z,3.63
2019-03-15T06:54:53.172Z,2.97
2019-03-15T06:57:22.629Z,2.67
2019-03-15T06:59:52.011Z,2.67
2019-03-15T07:02:21.416Z,2.73
2019-03-15T07:04:51.330Z,2.30
2019-03-15T07:07:39.796Z,2.97
2019-03-15T07:10:11.321Z,1.97
2019-03-15T07:12:40.868Z,1.90
2019-03-15T07:15:15.492Z,2.87
2019-03-15T07:17:47.159Z,2.30
2019-03-15T07:23:12.012Z,2.10
2019-03-15T07:25:41.479Z,1.67
2019-03-15T07:28:11.045Z,2.10
2019-03-15T07:30:40.526Z,1.97
2019-03-15T07:33:10.074Z,2.13
2019-03-15T07:35:39.609Z,3.60
2019-03-15T07:38:09.292Z,2.13
2019-03-15T07:40:38.636Z,2.00
2019-03-15T07:43:08.030Z,2.40
2019-03-15T07:45:37.505Z,2.20
2019-03-15T07:48:06.899Z,1.80
2019-03-15T07:50:36.310Z,2.23
2019-03-15T07:53:05.772Z,1.90
2019-03-15T07:55:35.222Z,2.00
2019-03-15T07:58:04.612Z,1.90
2019-03-15T08:00:34.117Z,1.70
2019-03-15T08:03:04.534Z,2.03
2019-03-15T08:05:33.958Z,2.23
2019-03-15T08:08:03.401Z,1.50
2019-03-15T08:10:32.866Z,2.20
2019-03-15T08:13:02.299Z,1.70
2019-03-15T08:15:33.140Z,2.20
2019-03-15T08:20:57.921Z,1.83
2019-03-15T08:23:27.681Z,2.20
2019-03-15T08:25:57.240Z,1.60
2019-03-15T08:28:27.416Z,1.90
2019-03-15T08:30:57.048Z,1.70
2019-03-15T08:33:26.713Z,1.70
2019-03-15T08:35:56.272Z,1.63
2019-03-15T08:38:28.607Z,1.50
2019-03-15T08:40:57.980Z,2.23
2019-03-15T08:43:27.398Z,1.40
2019-03-15T08:45:56.952Z,1.73
2019-03-15T08:51:26.242Z,1.67
2019-03-15T08:56:33.393Z,1.60
2019-03-15T09:01:43.966Z,2.10
2019-03-15T09:04:13.355Z,2.10
2019-03-15T09:06:43.467Z,2.03
2019-03-15T09:09:13.128Z,2.00
2019-03-15T09:12:03.151Z,2.27
2019-03-15T09:14:32.573Z,1.53
2019-03-15T09:17:01.986Z,2.47
2019-03-15T09:19:31.402Z,2.20
2019-03-15T09:22:15.488Z,2.40
2019-03-15T09:24:32.400Z,1.77
2019-03-15T09:27:01.904Z,1.80
2019-03-15T09:29:31.372Z,2.00
2019-03-15T09:32:08.728Z,2.97
2019-03-15T09:34:42.469Z,3.60
2019-03-15T09:40:00.645Z,1.80
2019-03-15T09:42:48.956Z,2.10
2019-03-15T09:45:18.698Z,1.37
2019-03-15T09:48:07.066Z,1.60
2019-03-15T09:50:50.481Z,1.50
2019-03-15T09:53:19.308Z,1.83
2019-03-15T09:55:51.230Z,1.33
2019-03-15T09:58:20.646Z,1.20
2019-03-15T10:03:38.475Z,1.33
2019-03-15T10:06:14.728Z,2.70
2019-03-15T10:08:54.133Z,1.37
2019-03-15T10:11:10.340Z,1.63
2019-03-15T10:13:39.999Z,1.53
2019-03-15T10:16:09.394Z,1.70
2019-03-15T10:21:13.921Z,1.53
2019-03-15T10:23:43.507Z,1.50
2019-03-15T10:26:14.964Z,1.53
2019-03-15T10:28:44.921Z,1.07
2019-03-15T10:31:14.358Z,1.13
2019-03-15T10:33:50.771Z,1.40
2019-03-15T10:36:17.301Z,2.00
2019-03-15T10:38:46.893Z,1.27
2019-03-15T10:41:16.311Z,1.70
2019-03-15T10:43:45.707Z,1.40
2019-03-15T10:46:15.228Z,1.80
2019-03-15T10:49:03.699Z,1.70
2019-03-15T10:51:33.307Z,2.07
2019-03-15T10:56:58.348Z,1.63
2019-03-15T10:59:27.954Z,1.60
2019-03-15T11:01:57.375Z,1.57
2019-03-15T11:04:27.001Z,2.30
2019-03-15T11:06:56.411Z,3.20
2019-03-15T11:09:25.920Z,1.70
2019-03-15T11:11:55.362Z,1.77
2019-03-15T11:14:26.933Z,1.70
2019-03-15T11:16:56.379Z,1.77
2019-03-15T11:19:25.916Z,1.80
2019-03-15T11:21:55.345Z,1.37
2019-03-15T11:24:26.498Z,1.60
2019-03-15T11:29:31.113Z,2.13
2019-03-15T11:32:00.650Z,1.90
2019-03-15T11:34:48.918Z,1.63
2019-03-15T11:37:18.513Z,1.20
2019-03-15T11:39:47.939Z,1.73
2019-03-15T11:42:17.381Z,1.63
2019-03-15T11:47:22.024Z,1.60
2019-03-15T11:49:51.587Z,1.90
2019-03-15T11:52:21.028Z,1.53
2019-03-15T11:54:50.446Z,2.10
2019-03-15T11:57:32.352Z,1.50
2019-03-15T12:00:02.198Z,1.57
2019-03-15T12:02:32.193Z,1.70
2019-03-15T12:05:01.724Z,1.67
2019-03-15T12:07:50.122Z,1.40
2019-03-15T12:10:19.649Z,1.60
2019-03-15T12:12:49.039Z,3.10
2019-03-15T12:15:18.496Z,1.50
2019-03-15T12:17:48.029Z,1.60
2019-03-15T12:20:36.797Z,1.30
2019-03-15T12:23:17.568Z,1.50
2019-03-15T12:25:49.541Z,2.60
2019-03-15T12:28:18.943Z,1.50
2019-03-15T12:30:48.421Z,2.33
2019-03-15T12:33:17.948Z,2.00
2019-03-15T12:35:47.372Z,2.57
2019-03-15T12:38:16.834Z,2.33
2019-03-15T12:40:51.531Z,3.07
2019-03-15T12:43:21.024Z,1.97
2019-03-15T12:45:52.202Z,1.97
2019-03-15T12:48:21.589Z,2.03
2019-03-15T12:50:54.138Z,2.00
2019-03-15T12:53:23.611Z,2.20
2019-03-15T12:56:10.903Z,1.87
2019-03-15T12:58:39.198Z,1.77
2019-03-15T13:01:09.083Z,1.83
2019-03-15T13:03:38.605Z,2.27
2019-03-15T13:06:07.987Z,1.77
2019-03-15T13:08:37.451Z,2.30
2019-03-15T13:11:11.462Z,1.93
2019-03-15T13:13:41.068Z,1.90
2019-03-15T13:16:12.533Z,1.80
2019-03-15T13:21:20.580Z,2.00
2019-03-15T13:26:44.088Z,2.30
2019-03-15T13:29:13.805Z,1.80
2019-03-15T13:31:45.928Z,1.90
2019-03-15T13:34:15.375Z,2.30
2019-03-15T13:36:45.217Z,2.57
2019-03-15T13:39:14.628Z,2.30
2019-03-15T13:41:46.956Z,2.00
2019-03-15T13:44:16.403Z,2.30
2019-03-15T13:46:45.921Z,2.33
2019-03-15T13:49:34.429Z,3.00
2019-03-15T13:52:04.356Z,3.00
2019-03-15T13:54:33.791Z,3.17
2019-03-15T13:57:03.229Z,3.20
2019-03-15T13:59:32.629Z,3.20
2019-03-15T14:02:07.655Z,3.50
2019-03-15T14:04:55.542Z,3.40
2019-03-15T14:10:19.906Z,3.87
2019-03-15T14:12:49.363Z,3.20
2019-03-15T14:15:18.887Z,3.40
2019-03-15T14:17:48.524Z,3.37
2019-03-15T14:20:20.444Z,3.20
2019-03-15T14:23:09.487Z,3.40
2019-03-15T14:25:51.044Z,4.70
2019-03-15T14:28:20.493Z,3.57
2019-03-15T14:30:50.111Z,3.70
2019-03-15T14:33:19.675Z,3.83
2019-03-15T14:43:45.130Z,7.73
2019-03-15T14:46:14.850Z,5.10
2019-03-15T14:49:03.500Z,6.30
2019-03-15T14:54:46.666Z,6.40
2019-03-15T14:57:16.510Z,6.47
2019-03-15T14:59:46.139Z,7.27
2019-03-15T15:02:16.002Z,6.37
2019-03-15T15:04:45.586Z,6.43
2019-03-15T15:07:18.491Z,6.63
2019-03-15T15:12:23.311Z,6.50
2019-03-15T15:14:52.743Z,5.37
2019-03-15T15:17:24.471Z,5.47
2019-03-15T15:20:08.224Z,4.73
2019-03-15T15:25:21.727Z,5.87
2019-03-15T15:33:21.907Z,4.87
2019-03-15T15:35:54.308Z,3.83
2019-03-15T15:44:09.112Z,4.00
2019-03-15T15:46:46.213Z,3.90
2019-03-15T15:49:15.933Z,4.60
2019-03-15T15:51:47.511Z,3.73
2019-03-15T15:54:17.259Z,4.10
2019-03-15T15:56:46.724Z,3.23
2019-03-15T15:59:16.144Z,3.40
2019-03-15T16:01:45.572Z,3.50
2019-03-15T16:04:14.973Z,3.43
2019-03-15T16:06:44.347Z,4.93
2019-03-15T16:09:13.914Z,3.93
2019-03-15T16:11:43.805Z,5.70
2019-03-15T16:14:13.542Z,4.10
2019-03-15T16:16:43.311Z,4.03
2019-03-15T16:19:35.847Z,4.00
2019-03-15T16:22:05.566Z,3.20
2019-03-15T16:24:34.957Z,4.23
2019-03-15T16:27:04.463Z,3.73
2019-03-15T16:29:36.877Z,4.23
2019-03-15T16:32:06.291Z,4.47
2019-03-15T16:34:35.667Z,4.20
2019-03-15T16:37:08.246Z,3.40
2019-03-15T16:39:37.669Z,3.90
2019-03-15T16:42:08.754Z,3.73
2019-03-15T16:47:13.921Z,3.63
2019-03-15T16:52:29.111Z,4.00
2019-03-15T16:54:58.748Z,4.50
2019-03-15T16:57:28.292Z,3.53
2019-03-15T16:59:57.929Z,6.00
2019-03-15T17:02:30.554Z,4.23
2019-03-15T17:05:00.071Z,4.73
2019-03-15T17:07:29.772Z,5.83
2019-03-15T17:09:59.192Z,5.30
2019-03-15T17:12:28.847Z,5.23
2019-03-15T17:14:58.422Z,6.00
2019-03-15T17:17:27.854Z,5.83
2019-03-15T17:19:57.333Z,5.60
2019-03-15T17:25:01.684Z,4.57
2019-03-15T17:27:50.206Z,6.07
2019-03-15T17:30:31.603Z,5.07
2019-03-15T17:33:01.490Z,5.77
2019-03-15T17:35:30.943Z,5.73
2019-03-15T17:38:00.439Z,5.63
2019-03-15T17:40:30.014Z,5.60
2019-03-15T17:43:02.066Z,5.20
2019-03-15T17:45:31.979Z,5.07
2019-03-15T17:48:01.438Z,4.93
2019-03-15T17:50:31.199Z,5.27
2019-03-15T17:53:03.144Z,5.73
2019-03-15T17:58:07.338Z,6.00
2019-03-15T18:03:21.657Z,6.30
2019-03-15T18:05:49.591Z,5.70
2019-03-15T18:08:18.972Z,7.33
2019-03-15T18:10:48.852Z,6.17
2019-03-15T18:13:18.242Z,6.27
2019-03-15T18:15:47.657Z,6.17
2019-03-15T18:20:52.179Z,6.90
2019-03-15T18:23:21.683Z,6.63
2019-03-15T18:25:51.145Z,7.10
2019-03-15T18:28:20.606Z,6.20
2019-03-15T18:30:50.901Z,7.80
2019-03-15T18:33:20.295Z,6.60
2019-03-15T18:35:49.695Z,7.63
2019-03-15T18:38:19.094Z,6.73
2019-03-15T18:40:48.501Z,7.00
2019-03-15T18:43:17.896Z,7.20
2019-03-15T18:45:47.324Z,7.73
2019-03-15T18:48:16.854Z,6.57
2019-03-15T18:50:46.281Z,7.27
2019-03-15T18:55:50.453Z,7.13
2019-03-15T19:01:00.405Z,7.80
2019-03-15T19:03:29.862Z,7.57
2019-03-15T19:05:59.379Z,6.23
2019-03-15T19:08:29.084Z,6.40
2019-03-15T19:11:05.032Z,8.00
2019-03-15T19:13:34.593Z,7.10
2019-03-15T19:16:04.282Z,7.53
2019-03-15T19:18:33.744Z,6.67
2019-03-15T19:21:03.434Z,7.47
2019-03-15T19:23:32.909Z,7.70
2019-03-15T19:26:02.320Z,7.60
2019-03-15T19:28:32.007Z,9.93
2019-03-15T19:31:20.548Z,9.10
2019-03-15T19:34:01.170Z,8.17
2019-03-15T19:36:31.555Z,8.27
2019-03-15T19:39:01.049Z,8.17
2019-03-15T19:44:05.931Z,9.00
2019-03-15T19:46:35.431Z,9.43
2019-03-15T19:49:05.206Z,9.53
2019-03-15T19:51:34.564Z,9.63
2019-03-15T19:54:04.290Z,9.63
2019-03-15T19:56:33.720Z,11.43
2019-03-15T19:59:03.187Z,11.27
2019-03-15T20:01:32.590Z,11.43
2019-03-15T20:04:21.464Z,10.63
2019-03-15T20:06:51.162Z,10.60
2019-03-15T20:09:20.959Z,9.80
2019-03-15T20:11:50.462Z,7.97
2019-03-15T20:14:19.866Z,8.03
2019-03-15T20:16:49.283Z,6.50
2019-03-15T20:19:18.681Z,8.20
2019-03-15T20:22:07.090Z,5.97
2019-03-15T20:27:30.416Z,7.07
2019-03-15T20:29:59.917Z,6.50
2019-03-15T20:32:29.372Z,5.10
2019-03-15T20:34:59.031Z,6.83
2019-03-15T20:37:49.141Z,7.67
2019-03-15T20:40:18.559Z,5.27
2019-03-15T20:42:47.996Z,5.17
2019-03-15T20:47:52.225Z,6.50
2019-03-15T20:50:21.654Z,4.93
2019-03-15T20:52:51.068Z,5.87
2019-03-15T20:55:20.486Z,7.47
2019-03-15T20:57:50.118Z,5.37
2019-03-15T21:00:19.746Z,5.73
2019-03-15T21:02:49.201Z,7.43
2019-03-15T21:05:18.783Z,6.37
2019-03-15T21:07:48.171Z,5.20
2019-03-15T21:15:40.772Z,6.57
2019-03-15T21:18:10.322Z,4.90
2019-03-15T21:20:43.116Z,4.07
2019-03-15T21:23:12.540Z,4.03
2019-03-15T21:25:42.201Z,3.43
2019-03-15T21:28:11.554Z,3.77
2019-03-15T21:30:48.256Z,4.37
2019-03-15T21:33:12.408Z,4.63
2019-03-15T21:35:41.852Z,4.53
2019-03-15T21:38:12.930Z,3.50
2019-03-15T21:40:42.378Z,4.17
2019-03-15T21:43:11.902Z,3.70
2019-03-15T21:45:41.308Z,4.40
2019-03-15T21:50:46.350Z,3.07
2019-03-15T21:55:57.301Z,3.23
2019-03-15T21:58:26.910Z,3.00
2019-03-15T22:01:02.381Z,3.20
2019-03-15T22:03:28.210Z,2.60
2019-03-15T22:05:57.669Z,3.27
2019-03-15T22:08:27.180Z,3.13
2019-03-15T22:10:56.689Z,4.00
2019-03-15T22:13:45.084Z,3.40
2019-03-15T22:16:14.486Z,2.70
2019-03-15T22:18:43.885Z,3.10
2019-03-15T22:21:13.351Z,3.27
2019-03-15T22:23:42.929Z,2.90
2019-03-15T22:26:12.334Z,3.20
2019-03-15T22:28:41.807Z,3.20
2019-03-15T22:31:16.560Z,3.00
2019-03-15T22:33:42.611Z,3.17
2019-03-15T22:36:31.117Z,3.40
2019-03-15T22:39:11.914Z,3.10
2019-03-15T22:41:41.646Z,3.03
2019-03-15T22:44:30.242Z,3.20
2019-03-15T22:47:11.573Z,3.80
2019-03-15T22:49:41.103Z,3.37
2019-03-15T22:52:29.644Z,3.23
2019-03-15T22:58:00.944Z,3.57
2019-03-15T23:00:36.166Z,3.57
2019-03-15T23:03:06.034Z,3.23
2019-03-15T23:05:36.972Z,2.93
2019-03-15T23:11:00.674Z,2.50
2019-03-15T23:13:30.723Z,2.50
2019-03-15T23:16:19.092Z,2.47
2019-03-15T23:18:48.743Z,2.90
2019-03-15T23:21:18.113Z,2.50
2019-03-15T23:23:47.480Z,3.00
2019-03-15T23:26:16.886Z,2.90
2019-03-15T23:28:47.392Z,2.97
2019-03-15T23:31:17.876Z,2.47
2019-03-15T23:33:47.363Z,2.70
2019-03-15T23:36:16.782Z,2.43
2019-03-15T23:38:46.146Z,2.80
2019-03-15T23:41:26.838Z,2.57
2019-03-15T23:43:56.310Z,3.37
2019-03-15T23:46:25.819Z,2.60
2019-03-15T23:48:55.223Z,3.30
2019-03-15T23:51:24.783Z,2.80
2019-03-15T23:53:54.162Z,3.00
2019-03-15T23:56:23.668Z,2.53
2019-03-15T23:58:53.078Z,2.63
